Time;durP1;ratioP1;P1;durP2;ratioP2;P2;SDS_P1;SDS_P2;PMS_P1;PMS_P2;Temp;Humidity;BMP_temperature;BMP_pressure;BME280_temperature;BME280_humidity;BME280_pressure;Samples;Min_cycle;Max_cycle;Signal;HPM_P1;HPM_P2
2022/09/21 00:01:29;;;;;;;6.00;3.83;;;;;;;11.13;100.00;100126.52;1716774;83;21148;-72
2022/09/21 00:04:00;;;;;;;5.60;3.90;;;;;;;11.11;100.00;100123.20;1716482;83;21040;-73
2022/09/21 00:06:31;;;;;;;6.55;3.67;;;;;;;11.09;100.00;100122.45;1714534;83;21062;-72
2022/09/21 00:08:59;;;;;;;5.97;3.98;;;;;;;11.05;100.00;100122.23;1701761;83;21003;-71
2022/09/21 00:11:30;;;;;;;5.92;3.42;;;;;;;11.02;100.00;100132.25;1702745;83;21527;-72
2022/09/21 00:14:03;;;;;;;6.37;4.03;;;;;;;10.97;100.00;100127.81;1715558;83;21027;-73
2022/09/21 00:16:31;;;;;;;6.00;3.60;;;;;;;10.95;100.00;100129.16;1701630;83;21106;-73
2022/09/21 00:19:01;;;;;;;6.45;3.95;;;;;;;10.95;100.00;100137.36;1720207;83;21060;-72
2022/09/21 00:21:28;;;;;;;6.03;3.60;;;;;;;10.91;100.00;100135.81;1708777;82;21093;-73
2022/09/21 00:23:55;;;;;;;9.50;3.70;;;;;;;10.86;100.00;100136.53;1691493;83;21058;-71
2022/09/21 00:26:26;;;;;;;5.40;3.40;;;;;;;10.80;100.00;100144.92;1713724;83;21559;-72
2022/09/21 00:28:56;;;;;;;4.47;3.27;;;;;;;10.78;100.00;100151.89;1709556;82;21311;-72
2022/09/21 00:31:24;;;;;;;5.08;3.40;;;;;;;10.75;100.00;100150.78;1724737;83;21676;-72
2022/09/21 00:33:51;;;;;;;5.20;3.40;;;;;;;10.68;100.00;100158.42;1708095;82;21055;-71
2022/09/21 00:36:22;;;;;;;5.08;3.62;;;;;;;10.63;100.00;100156.09;1701821;83;21559;-72
2022/09/21 00:38:55;;;;;;;4.58;3.08;;;;;;;10.58;100.00;100158.07;1721062;83;21071;-72
2022/09/21 00:41:23;;;;;;;6.70;3.87;;;;;;;10.53;100.00;100161.77;1704395;82;21063;-72
2022/09/21 00:44:25;;;;;;;4.58;3.50;;;;;;;10.50;100.00;100160.62;1727438;83;21057;-72
2022/09/21 00:46:55;;;;;;;5.30;3.58;;;;;;;10.46;100.00;100166.83;1718212;83;21578;-72
2022/09/21 00:49:24;;;;;;;5.67;3.60;;;;;;;10.39;100.00;100171.45;1725094;83;21077;-72
2022/09/21 00:51:52;;;;;;;5.22;3.72;;;;;;;10.36;100.00;100163.87;1713614;83;21087;-73
2022/09/21 00:54:28;;;;;;;5.12;3.80;;;;;;;10.35;100.00;100163.50;1706569;82;21094;-71
2022/09/21 00:56:58;;;;;;;5.47;3.70;;;;;;;10.31;100.00;100159.41;1713761;81;21098;-72
2022/09/21 00:59:25;;;;;;;5.35;3.60;;;;;;;10.31;100.00;100161.53;1707839;82;21043;-72
2022/09/21 01:01:53;;;;;;;6.75;3.62;;;;;;;10.32;100.00;100165.78;1713778;83;21028;-72
2022/09/21 01:04:20;;;;;;;4.67;3.62;;;;;;;10.29;100.00;100168.92;1716741;81;21624;-72
2022/09/21 01:06:49;;;;;;;4.83;3.70;;;;;;;10.24;100.00;100165.29;1706046;81;20996;-72
2022/09/21 01:09:18;;;;;;;6.80;3.55;;;;;;;10.15;100.00;100157.53;1713242;82;21086;-72
2022/09/21 01:12:07;;;;;;;5.47;3.62;;;;;;;10.11;100.00;100156.48;1701307;82;21087;-72
2022/09/21 01:14:53;;;;;;;7.50;4.00;;;;;;;10.06;100.00;100156.70;1698000;82;21044;-72
2022/09/21 01:17:28;;;;;;;5.00;3.77;;;;;;;10.00;100.00;100153.14;1699160;83;21028;-73
2022/09/21 01:20:10;;;;;;;7.50;3.70;;;;;;;9.94;100.00;100145.72;1714511;82;21113;-72
2022/09/21 01:22:54;;;;;;;5.65;3.83;;;;;;;9.87;100.00;100140.47;1719909;82;21047;-72
2022/09/21 01:25:49;;;;;;;;;;;;;;;9.77;100.00;100143.92;1726594;81;21055;-72
2022/09/21 01:28:29;;;;;;;5.17;3.35;;;;;;;9.73;100.00;100145.82;1707567;81;20377;-72
2022/09/21 01:31:04;;;;;;;5.45;3.67;;;;;;;9.75;100.00;100140.59;1707418;82;21094;-72
2022/09/21 01:33:39;;;;;;;5.28;3.77;;;;;;;9.70;100.00;100144.66;1699862;82;21543;-72
2022/09/21 01:36:11;;;;;;;6.70;3.90;;;;;;;9.63;100.00;100147.98;1705739;82;21109;-72
2022/09/21 01:38:44;;;;;;;7.45;3.95;;;;;;;9.65;100.00;100150.48;1698966;83;21057;-71
2022/09/21 01:41:15;;;;;;;7.70;3.83;;;;;;;9.61;100.00;100153.64;1719039;83;21059;-72
2022/09/21 01:43:50;;;;;;;6.00;3.67;;;;;;;9.48;100.00;100145.27;1700282;82;21050;-72
2022/09/21 01:46:20;;;;;;;7.42;4.15;;;;;;;9.52;100.00;100145.05;1715902;81;21051;-72
2022/09/21 01:48:53;;;;;;;7.80;4.20;;;;;;;9.51;100.00;100144.69;1708005;82;21015;-72
2022/09/21 01:51:24;;;;;;;7.45;4.35;;;;;;;9.48;100.00;100160.69;1702774;83;21078;-72
2022/09/21 01:54:05;;;;;;;6.42;4.15;;;;;;;9.35;100.00;100154.81;1687867;85;21062;-72
2022/09/21 01:56:40;;;;;;;9.08;4.47;;;;;;;9.32;100.00;100159.25;1719057;82;21099;-73
2022/09/21 01:59:26;;;;;;;7.55;4.00;;;;;;;9.27;100.00;100158.17;1709111;83;21150;-73
2022/09/21 02:02:00;;;;;;;8.10;3.98;;;;;;;9.25;100.00;100161.72;1708100;83;22216;-72
2022/09/21 02:04:27;;;;;;;;;;;;;;;9.23;100.00;100156.64;1699424;83;21096;-72
2022/09/21 02:06:55;;;;;;;7.62;4.28;;;;;;;9.19;100.00;100165.39;1684415;84;20159;-72
2022/09/21 02:09:24;;;;;;;8.03;4.60;;;;;;;9.16;100.00;100161.19;1668686;86;21085;-73
2022/09/21 02:11:52;;;;;;;8.08;4.40;;;;;;;9.13;100.00;100157.49;1665518;86;21044;-73
2022/09/21 02:14:21;;;;;;;8.48;4.28;;;;;;;9.10;100.00;100158.06;1709195;83;21847;-72
2022/09/21 02:17:16;;;;;;;7.65;4.33;;;;;;;9.07;100.00;100156.94;1720113;83;21044;-72
2022/09/21 02:19:49;;;;;;;6.20;4.00;;;;;;;9.01;100.00;100159.31;1715116;82;21098;-73
2022/09/21 02:23:04;;;;;;;7.65;4.40;;;;;;;8.95;100.00;100153.16;1717549;83;21040;-72
2022/09/21 02:25:58;;;;;;;7.42;4.58;;;;;;;8.95;100.00;100155.73;1704602;83;21076;-73
2022/09/21 02:28:50;;;;;;;7.15;4.42;;;;;;;8.87;100.00;100154.77;1687844;84;21602;-72
2022/09/21 02:31:35;;;;;;;8.33;4.53;;;;;;;8.85;100.00;100154.00;1714305;82;21558;-72
2022/09/21 02:34:16;;;;;;;9.53;5.08;;;;;;;8.85;100.00;100154.00;1714765;82;21559;-72
2022/09/21 02:37:03;;;;;;;7.15;4.40;;;;;;;8.81;100.00;100164.01;1719586;83;21094;-72
2022/09/21 02:40:10;;;;;;;8.15;4.22;;;;;;;8.79;100.00;100161.95;1716058;82;21139;-72
2022/09/21 02:42:41;;;;;;;9.08;4.60;;;;;;;8.78;100.00;100161.59;1719839;83;21038;-71
2022/09/21 02:45:24;;;;;;;8.18;4.03;;;;;;;8.77;100.00;100163.75;1716701;80;21070;-73
2022/09/21 02:48:19;;;;;;;8.85;4.37;;;;;;;8.69;100.00;100168.38;1700002;83;21055;-73
2022/09/21 02:50:54;;;;;;;8.45;4.80;;;;;;;8.64;100.00;100172.42;1715761;82;21023;-72
2022/09/21 02:53:32;;;;;;;7.10;4.35;;;;;;;8.65;100.00;100173.25;1714028;83;21030;-72
2022/09/21 02:56:05;;;;;;;9.65;5.12;;;;;;;8.65;100.00;100172.80;1723232;83;21043;-72
2022/09/21 02:58:35;;;;;;;6.83;3.87;;;;;;;8.63;100.00;100176.70;1724692;83;21050;-72
2022/09/21 03:01:07;;;;;;;5.85;3.77;;;;;;;8.59;100.00;100176.89;1709635;81;21047;-72
2022/09/21 03:03:31;;;;;;;6.95;4.10;;;;;;;8.55;100.00;100181.77;1704751;83;21054;-72
2022/09/21 03:06:00;;;;;;;8.48;4.30;;;;;;;8.54;100.00;100184.79;1718097;83;21610;-73
2022/09/21 03:08:29;;;;;;;7.22;4.47;;;;;;;8.53;100.00;100183.56;1706422;83;21058;-72
2022/09/21 03:10:56;;;;;;;7.03;4.10;;;;;;;8.50;100.00;100183.70;1695458;82;21057;-73
2022/09/21 03:13:24;;;;;;;8.48;4.30;;;;;;;8.46;100.00;100176.58;1709663;82;21082;-73
2022/09/21 03:16:05;;;;;;;6.42;4.40;;;;;;;8.45;100.00;100180.02;1703763;82;21004;-72
2022/09/21 03:18:34;;;;;;;8.13;4.30;;;;;;;8.38;100.00;100181.15;1682662;84;21083;-72
2022/09/21 03:21:02;;;;;;;6.55;4.00;;;;;;;8.32;100.00;100186.06;1715266;83;21004;-70
2022/09/21 03:23:29;;;;;;;6.50;4.33;;;;;;;8.29;100.00;100183.61;1710444;83;21031;-71
2022/09/21 03:25:56;;;;;;;6.85;4.15;;;;;;;8.26;100.00;100188.88;1720978;82;21060;-72
2022/09/21 03:28:23;;;;;;;7.08;4.37;;;;;;;8.30;100.00;100194.73;1719709;83;21008;-71
2022/09/21 03:30:51;;;;;;;8.18;4.58;;;;;;;8.30;100.00;100195.55;1700589;83;21007;-71
2022/09/21 03:33:19;;;;;;;8.55;4.78;;;;;;;8.38;100.00;100196.54;1720092;83;21051;-71
2022/09/21 03:35:50;;;;;;;8.68;4.60;;;;;;;8.43;100.00;100190.79;1722230;81;21618;-71
2022/09/21 03:38:19;;;;;;;6.78;4.00;;;;;;;8.53;100.00;100186.95;1706116;82;21050;-72
2022/09/21 03:40:48;;;;;;;7.42;4.70;;;;;;;8.66;100.00;100186.45;1715136;82;21074;-71
2022/09/21 03:43:17;;;;;;;7.75;4.70;;;;;;;8.82;100.00;100189.62;1706463;83;21522;-71
2022/09/21 03:45:45;;;;;;;6.25;4.50;;;;;;;8.96;100.00;100192.89;1705622;82;21110;-71
2022/09/21 03:48:15;;;;;;;7.10;4.37;;;;;;;9.12;100.00;100201.20;1724898;82;21074;-71
2022/09/21 03:50:42;;;;;;;9.03;5.08;;;;;;;9.27;100.00;100201.02;1717086;81;21091;-72
2022/09/21 03:53:09;;;;;;;8.58;5.17;;;;;;;9.43;100.00;100205.86;1716666;82;21079;-71
2022/09/21 03:55:37;;;;;;;6.60;4.35;;;;;;;9.51;100.00;100221.77;1705316;82;21083;-72
2022/09/21 03:58:05;;;;;;;7.15;4.47;;;;;;;9.58;100.00;100232.59;1697421;82;21156;-71
2022/09/21 04:00:32;;;;;;;8.13;4.95;;;;;;;9.67;100.00;100233.92;1701059;83;21074;-72
2022/09/21 04:03:00;;;;;;;6.85;4.67;;;;;;;9.85;100.00;100234.83;1700673;82;21047;-71
2022/09/21 04:05:28;;;;;;;8.03;4.85;;;;;;;10.00;100.00;100242.69;1714853;83;21162;-71
2022/09/21 04:07:56;;;;;;;8.28;4.75;;;;;;;9.99;100.00;100244.03;1694466;84;21063;-71
2022/09/21 04:10:28;;;;;;;7.37;4.87;;;;;;;10.02;100.00;100240.05;1687932;83;21047;-71
2022/09/21 04:12:56;;;;;;;7.62;4.58;;;;;;;10.20;100.00;100242.22;1694385;83;21111;-71
2022/09/21 04:15:24;;;;;;;5.83;4.35;;;;;;;10.36;100.00;100247.06;1709796;83;21087;-71
2022/09/21 04:17:53;;;;;;;8.50;4.87;;;;;;;10.52;100.00;100246.31;1714121;84;21063;-72
2022/09/21 04:20:21;;;;;;;8.00;5.17;;;;;;;10.60;100.00;100254.50;1691683;84;21067;-71
2022/09/21 04:22:50;;;;;;;7.00;5.05;;;;;;;10.59;100.00;100261.39;1699671;83;21395;-72
2022/09/21 04:25:17;;;;;;;6.70;4.72;;;;;;;10.74;100.00;100263.67;1700208;83;21047;-71
2022/09/21 04:27:46;;;;;;;7.75;4.90;;;;;;;10.87;100.00;100265.64;1699359;83;21045;-72
2022/09/21 04:30:14;;;;;;;7.12;4.90;;;;;;;10.94;100.00;100272.17;1693727;84;21047;-72
2022/09/21 04:32:42;;;;;;;7.10;4.70;;;;;;;11.06;100.00;100273.31;1696609;83;21039;-72
2022/09/21 04:35:09;;;;;;;9.63;4.60;;;;;;;11.17;100.00;100267.14;1706245;82;21095;-71
2022/09/21 04:37:36;;;;;;;6.85;4.50;;;;;;;11.32;100.00;100274.58;1686535;83;21063;-71
2022/09/21 04:40:06;;;;;;;7.97;4.97;;;;;;;11.48;100.00;100270.30;1693884;83;21048;-72
2022/09/21 04:42:33;;;;;;;6.80;4.28;;;;;;;11.61;100.00;100266.16;1691734;83;21033;-71
2022/09/21 04:45:02;;;;;;;6.95;4.55;;;;;;;11.52;100.00;100281.30;1700633;83;21035;-71
2022/09/21 04:47:30;;;;;;;8.43;4.42;;;;;;;11.63;100.00;100285.42;1689432;83;21047;-71
2022/09/21 04:49:57;;;;;;;6.65;4.12;;;;;;;11.49;100.00;100275.81;1687493;83;21051;-71
2022/09/21 04:52:25;;;;;;;5.92;4.22;;;;;;;11.65;100.00;100273.28;1687999;83;21532;-72
2022/09/21 04:54:52;;;;;;;5.03;3.75;;;;;;;11.65;100.00;100279.72;1695026;83;21058;-71
2022/09/21 04:57:19;;;;;;;5.42;4.05;;;;;;;11.71;100.00;100272.95;1703673;83;21067;-71
2022/09/21 04:59:46;;;;;;;7.03;4.37;;;;;;;11.80;100.00;100271.63;1697599;83;21020;-72
2022/09/21 05:02:14;;;;;;;7.85;4.33;;;;;;;11.89;100.00;100279.39;1678518;84;21075;-71
2022/09/21 05:04:41;;;;;;;5.90;3.70;;;;;;;11.87;100.00;100282.02;1677674;83;21071;-72
2022/09/21 05:07:08;;;;;;;5.22;4.45;;;;;;;12.03;100.00;100286.75;1684396;84;21047;-71
2022/09/21 05:12:22;;;;;;;7.17;4.85;;;;;;;12.20;100.00;100282.43;1690033;83;21562;-71
2022/09/21 05:14:51;;;;;;;5.97;4.78;;;;;;;12.10;100.00;100292.88;1687700;83;21063;-71
2022/09/21 05:17:21;;;;;;;6.37;4.87;;;;;;;12.12;100.00;100292.34;1711055;83;21052;-71
2022/09/21 05:19:46;;;;;;;5.83;4.65;;;;;;;12.20;100.00;100297.45;1708280;83;21096;-71
2022/09/21 05:22:15;;;;;;;7.58;4.70;;;;;;;12.42;100.00;100289.83;1673011;83;21107;-72
2022/09/21 05:24:42;;;;;;;6.40;4.85;;;;;;;12.42;100.00;100293.23;1713954;83;21020;-71
2022/09/21 05:27:09;;;;;;;10.58;4.87;;;;;;;12.51;100.00;100297.52;1692396;83;21594;-70
2022/09/21 05:29:36;;;;;;;8.68;4.85;;;;;;;12.56;100.00;100302.80;1700966;83;21102;-71
2022/09/21 05:32:25;;;;;;;7.30;5.12;;;;;;;12.61;100.00;100301.25;1694318;83;21504;-71
2022/09/21 05:35:04;;;;;;;6.47;4.30;;;;;;;12.53;100.00;100295.25;1684670;83;21095;-71
2022/09/21 05:37:54;;;;;;;7.10;4.47;;;;;;;12.83;100.00;100299.59;1697631;84;21527;-71
2022/09/21 05:40:22;;;;;;;6.60;4.00;;;;;;;13.08;100.00;100299.03;1706992;83;21043;-72
2022/09/21 05:42:51;;;;;;;6.60;4.40;;;;;;;13.27;100.00;100301.37;1697948;83;21135;-72
2022/09/21 05:45:20;;;;;;;5.75;4.50;;;;;;;13.18;100.00;100310.97;1694069;83;21065;-71
2022/09/21 05:48:08;;;;;;;4.78;3.80;;;;;;;13.32;100.00;100319.22;1703032;83;21582;-71
2022/09/21 05:50:51;;;;;;;4.97;3.67;;;;;;;13.39;100.00;100327.00;1678964;84;21075;-71
2022/09/21 05:53:47;;;;;;;5.60;4.10;;;;;;;13.70;100.00;100324.70;1688709;84;21059;-71
2022/09/21 05:56:48;;;;;;;5.10;3.40;;;;;;;14.05;100.00;100329.95;1690818;83;21100;-71
2022/09/21 05:59:25;;;;;;;230.50;27.82;;;;;;;13.98;100.00;100351.50;1702107;83;21075;-71
2022/09/21 06:02:16;;;;;;;168.78;19.35;;;;;;;13.86;100.00;100358.72;1685984;83;21106;-71
2022/09/21 06:04:44;;;;;;;22.67;4.22;;;;;;;14.02;100.00;100347.80;1700178;83;21019;-72
2022/09/21 06:07:12;;;;;;;6.12;3.22;;;;;;;14.13;100.00;100357.05;1696368;84;21036;-72
2022/09/21 06:09:40;;;;;;;26.75;8.35;;;;;;;14.27;100.00;100363.95;1700360;83;21032;-71
2022/09/21 06:12:13;;;;;;;16.10;5.70;;;;;;;14.31;100.00;100371.06;1706862;83;21063;-72
2022/09/21 06:14:38;;;;;;;30.97;6.30;;;;;;;14.35;100.00;100368.19;1695095;83;21052;-71
2022/09/21 06:17:05;;;;;;;13.60;4.55;;;;;;;14.54;100.00;100378.25;1691659;83;21103;-71
2022/09/21 06:19:32;;;;;;;4.42;3.75;;;;;;;14.67;100.00;100377.50;1685133;83;21064;-72
2022/09/21 06:22:00;;;;;;;8.05;3.77;;;;;;;14.70;100.00;100388.95;1699743;83;21031;-72
2022/09/21 06:24:26;;;;;;;5.28;4.50;;;;;;;14.94;100.00;100388.71;1689333;83;21114;-71
2022/09/21 06:26:53;;;;;;;11.65;4.95;;;;;;;14.75;100.00;100394.22;1703820;83;21094;-72
2022/09/21 06:29:22;;;;;;;64.53;9.55;;;;;;;14.62;100.00;100392.87;1680321;83;21118;-72
2022/09/21 06:31:50;;;;;;;10.28;5.35;;;;;;;14.67;100.00;100392.58;1690998;83;21134;-72
2022/09/21 06:34:17;;;;;;;7.33;5.10;;;;;;;14.40;100.00;100400.30;1701451;82;21055;-72
2022/09/21 06:36:45;;;;;;;7.37;4.37;;;;;;;14.21;100.00;100393.66;1688808;83;21070;-71
2022/09/21 06:39:12;;;;;;;6.20;4.10;;;;;;;14.31;100.00;100389.19;1703769;84;21049;-72
2022/09/21 06:41:39;;;;;;;5.80;3.77;;;;;;;14.36;100.00;100397.05;1692036;83;21094;-71
2022/09/21 06:44:08;;;;;;;6.10;4.28;;;;;;;14.50;100.00;100411.75;1681326;83;21094;-72
2022/09/21 06:46:35;;;;;;;5.08;3.87;;;;;;;14.75;100.00;100401.17;1693491;83;21102;-72
2022/09/21 06:49:02;;;;;;;5.00;4.00;;;;;;;15.07;100.00;100410.78;1701167;83;21064;-72
2022/09/21 06:51:29;;;;;;;6.50;4.08;;;;;;;15.16;100.00;100414.53;1689392;83;21489;-72
2022/09/21 06:53:58;;;;;;;5.12;4.08;;;;;;;15.08;100.00;100421.97;1681570;84;21086;-71
2022/09/21 06:56:25;;;;;;;4.53;4.00;;;;;;;15.06;100.00;100416.87;1700287;83;21527;-72
2022/09/21 06:58:53;;;;;;;4.47;3.52;;;;;;;15.45;100.00;100418.28;1687452;84;21005;-72
2022/09/21 07:01:20;;;;;;;5.83;3.45;;;;;;;15.54;100.00;100428.06;1695423;83;21132;-71
2022/09/21 07:03:51;;;;;;;3.50;3.20;;;;;;;15.60;100.00;100427.17;1697530;83;21154;-72
2022/09/21 07:06:19;;;;;;;4.33;3.60;;;;;;;15.64;100.00;100436.89;1704454;84;21020;-72
2022/09/21 07:08:50;;;;;;;3.65;3.00;;;;;;;15.92;100.00;100433.31;1697594;83;21059;-72
2022/09/21 07:11:18;;;;;;;3.40;2.83;;;;;;;16.18;100.00;100434.14;1695011;83;21547;-72
2022/09/21 07:13:45;;;;;;;3.65;2.62;;;;;;;15.97;100.00;100439.48;1713993;83;21191;-72
2022/09/21 07:16:13;;;;;;;3.92;2.62;;;;;;;15.72;100.00;100442.44;1686902;83;21086;-72
2022/09/21 07:18:40;;;;;;;3.22;2.50;;;;;;;15.90;100.00;100453.36;1693019;83;21119;-71
2022/09/21 07:21:09;;;;;;;3.30;2.87;;;;;;;16.06;100.00;100447.96;1684615;84;21099;-72
2022/09/21 07:23:37;;;;;;;4.55;3.22;;;;;;;16.26;100.00;100454.39;1706801;83;21059;-72
2022/09/21 07:26:08;;;;;;;4.03;3.37;;;;;;;16.12;100.00;100460.53;1689403;83;21040;-72
2022/09/21 07:28:36;;;;;;;3.83;3.02;;;;;;;15.88;100.00;100458.30;1694060;83;21165;-71
2022/09/21 07:31:10;;;;;;;5.45;3.20;;;;;;;16.01;100.00;100452.62;1683423;83;21052;-72
2022/09/21 07:33:37;;;;;;;3.35;3.02;;;;;;;15.87;100.00;100450.95;1689985;83;21020;-72
2022/09/21 07:36:09;;;;;;;4.67;3.55;;;;;;;15.84;100.00;100449.88;1707737;82;21146;-72
2022/09/21 07:38:38;;;;;;;5.37;3.80;;;;;;;15.82;100.00;100451.27;1705630;83;21157;-72
2022/09/21 07:41:07;;;;;;;3.90;2.95;;;;;;;15.84;100.00;100451.17;1692845;84;21023;-72
2022/09/21 07:43:34;;;;;;;4.72;3.05;;;;;;;16.08;100.00;100453.87;1690226;83;21074;-73
2022/09/21 07:46:03;;;;;;;3.30;3.00;;;;;;;16.17;100.00;100453.71;1682915;84;21106;-72
2022/09/21 07:48:30;;;;;;;4.50;3.37;;;;;;;16.28;100.00;100455.56;1682075;84;21113;-73
2022/09/21 07:51:08;;;;;;;4.00;3.47;;;;;;;16.47;100.00;100459.86;1697670;83;21091;-72
2022/09/21 07:53:37;;;;;;;5.78;3.83;;;;;;;16.81;100.00;100466.16;1703618;83;21039;-72
2022/09/21 07:56:07;;;;;;;5.05;4.08;;;;;;;16.58;100.00;100460.41;1699020;83;20996;-72
2022/09/21 08:01:23;;;;;;;6.03;4.15;;;;;;;16.90;100.00;100468.56;1703839;83;21055;-72
2022/09/21 08:03:52;;;;;;;5.72;4.08;;;;;;;16.46;100.00;100467.28;1696342;83;21031;-73
2022/09/21 08:06:21;;;;;;;5.15;4.17;;;;;;;16.29;100.00;100463.26;1692182;83;21039;-73
2022/09/21 08:08:49;;;;;;;3.87;3.42;;;;;;;16.80;100.00;100457.13;1693212;84;21094;-72
2022/09/21 08:11:21;;;;;;;6.20;3.83;;;;;;;16.77;100.00;100472.95;1704483;83;21035;-73
2022/09/21 08:13:52;;;;;;;4.92;4.42;;;;;;;16.81;100.00;100465.33;1692393;83;21059;-72
2022/09/21 08:16:20;;;;;;;6.65;4.47;;;;;;;16.66;100.00;100476.28;1697186;83;21099;-72
2022/09/21 08:18:47;;;;;;;4.97;4.40;;;;;;;16.84;100.00;100473.38;1687421;84;21068;-72
2022/09/21 08:21:14;;;;;;;5.65;4.10;;;;;;;17.09;100.00;100478.50;1695524;83;21083;-72
2022/09/21 08:23:41;;;;;;;4.30;3.90;;;;;;;17.21;100.00;100478.05;1704864;83;22207;-72
2022/09/21 08:26:17;;;;;;;5.78;4.03;;;;;;;17.38;100.00;100474.25;1697264;83;21630;-73
2022/09/21 08:28:48;;;;;;;6.05;5.00;;;;;;;17.41;100.00;100476.61;1688975;83;21048;-72
2022/09/21 08:31:18;;;;;;;6.00;5.37;;;;;;;17.33;100.00;100477.16;1694889;83;21531;-73
2022/09/21 08:33:47;;;;;;;6.72;4.20;;;;;;;17.11;100.00;100464.05;1697435;84;21079;-73
2022/09/21 08:36:14;;;;;;;8.83;4.15;;;;;;;16.97;100.00;100465.89;1692309;83;21132;-73
2022/09/21 08:38:41;;;;;;;4.67;4.28;;;;;;;17.22;100.00;100458.92;1689916;83;21064;-73
2022/09/21 08:41:22;;;;;;;4.37;3.65;;;;;;;17.11;100.00;100459.70;1681184;83;21027;-72
2022/09/21 08:44:03;;;;;;;3.62;3.33;;;;;;;17.02;100.00;100459.88;1696905;84;21051;-72
2022/09/21 08:46:34;;;;;;;3.33;2.87;;;;;;;17.15;100.00;100464.19;1697745;83;21083;-73
2022/09/21 08:49:09;;;;;;;4.85;2.92;;;;;;;17.36;100.00;100463.12;1699055;83;21123;-73
2022/09/21 08:51:41;;;;;;;5.42;3.50;;;;;;;17.43;100.00;100469.04;1702403;83;21090;-72
2022/09/21 08:54:22;;;;;;;3.92;3.33;;;;;;;17.41;100.00;100466.20;1684432;83;21063;-73
2022/09/21 08:56:49;;;;;;;3.77;3.35;;;;;;;17.26;100.00;100467.34;1692521;83;21107;-73
2022/09/21 08:59:16;;;;;;;3.42;2.83;;;;;;;16.87;100.00;100469.23;1664444;85;21012;-73
2022/09/21 09:02:09;;;;;;;5.20;3.20;;;;;;;16.82;100.00;100460.47;1695535;83;21555;-73
2022/09/21 09:04:57;;;;;;;4.95;3.27;;;;;;;16.96;100.00;100453.81;1707128;84;21083;-72
2022/09/21 09:07:39;;;;;;;4.58;3.00;;;;;;;17.24;100.00;100454.91;1698472;83;21094;-73
2022/09/21 09:10:40;;;;;;;4.05;3.05;;;;;;;17.16;100.00;100460.19;1702257;83;21484;-72
2022/09/21 09:13:54;;;;;;;4.50;2.83;;;;;;;17.07;100.00;100454.81;1709851;83;21130;-72
2022/09/21 09:16:56;;;;;;;3.83;2.80;;;;;;;16.94;100.00;100453.09;1714837;83;21059;-71
2022/09/21 09:19:43;;;;;;;4.45;3.20;;;;;;;17.09;100.00;100453.78;1699466;83;21046;-70
2022/09/21 09:22:15;;;;;;;4.22;3.30;;;;;;;17.17;100.00;100451.91;1685593;83;21138;-70
2022/09/21 09:24:49;;;;;;;3.40;3.10;;;;;;;16.98;100.00;100450.64;1697971;83;21134;-70
2022/09/21 09:27:22;;;;;;;;;;;;;;;17.04;100.00;100458.95;1663566;83;21051;-70
2022/09/21 09:30:00;;;;;;;3.67;3.37;;;;;;;16.88;100.00;100461.34;1703296;84;20136;-70
2022/09/21 09:32:44;;;;;;;4.05;3.42;;;;;;;16.86;100.00;100457.19;1705241;83;21105;-70
2022/09/21 09:35:46;;;;;;;3.60;3.30;;;;;;;17.18;100.00;100446.59;1701015;83;21087;-69
2022/09/21 09:38:39;;;;;;;4.33;2.87;;;;;;;17.47;100.00;100448.83;1688376;84;21520;-70
2022/09/21 09:41:26;;;;;;;2.60;2.40;;;;;;;17.59;100.00;100454.91;1703839;83;21114;-70
2022/09/21 09:44:22;;;;;;;4.37;2.47;;;;;;;17.88;100.00;100459.25;1685130;84;21022;-70
2022/09/21 09:47:20;;;;;;;3.15;2.60;;;;;;;18.19;98.67;100453.84;1692047;83;21102;-70
2022/09/21 09:50:01;;;;;;;3.08;2.77;;;;;;;18.64;97.50;100451.69;1685151;84;21017;-70
2022/09/21 09:52:29;;;;;;;5.05;2.85;;;;;;;18.87;93.05;100455.58;1691499;83;21092;-70
2022/09/21 09:54:57;;;;;;;3.20;2.90;;;;;;;18.56;93.76;100461.41;1684477;83;21053;-70
2022/09/21 09:57:31;;;;;;;2.52;2.33;;;;;;;18.74;96.16;100453.92;1688833;83;21094;-70
2022/09/21 10:00:11;;;;;;;4.78;2.75;;;;;;;18.88;92.76;100468.98;1696511;83;21051;-70
2022/09/21 10:02:57;;;;;;;2.72;2.52;;;;;;;18.73;90.94;100474.89;1703133;83;21075;-72
2022/09/21 10:05:34;;;;;;;3.33;2.75;;;;;;;18.52;94.60;100466.98;1688491;83;21042;-72
2022/09/21 10:08:02;;;;;;;4.45;3.05;;;;;;;18.61;97.88;100457.98;1692115;83;21192;-73
2022/09/21 10:10:40;;;;;;;3.10;2.80;;;;;;;18.70;92.96;100468.63;1720879;83;21583;-72
2022/09/21 10:13:15;;;;;;;4.92;3.00;;;;;;;18.62;92.01;100467.92;1690729;83;21134;-72
2022/09/21 10:15:55;;;;;;;3.58;2.95;;;;;;;18.54;94.00;100470.31;1710138;83;21060;-73
2022/09/21 10:18:45;;;;;;;4.67;3.10;;;;;;;18.43;94.49;100473.76;1703904;83;21021;-72
2022/09/21 10:21:29;;;;;;;4.47;3.10;;;;;;;18.62;91.25;100478.36;1684298;84;21608;-72
2022/09/21 10:24:36;;;;;;;3.70;3.33;;;;;;;18.87;93.28;100471.23;1677483;84;21065;-73
2022/09/21 10:27:11;;;;;;;5.00;3.27;;;;;;;19.03;94.87;100469.53;1684284;83;21116;-72
2022/09/21 10:29:47;;;;;;;3.62;3.00;;;;;;;19.15;90.08;100475.89;1684780;83;21057;-72
2022/09/21 10:32:22;;;;;;;4.75;3.17;;;;;;;19.16;92.52;100477.56;1684791;84;21059;-73
2022/09/21 10:35:11;;;;;;;4.05;2.77;;;;;;;19.24;90.20;100472.18;1692171;82;21056;-72
2022/09/21 10:37:47;;;;;;;6.55;2.60;;;;;;;18.81;87.79;100482.97;1688967;83;21102;-72
2022/09/21 10:40:24;;;;;;;4.80;2.58;;;;;;;18.64;88.48;100483.45;1690816;83;21503;-72
2022/09/21 10:42:57;;;;;;;5.15;2.90;;;;;;;18.59;89.94;100478.58;1685025;83;21035;-73
2022/09/21 10:45:28;;;;;;;3.33;2.90;;;;;;;18.48;90.13;100485.13;1686706;83;21066;-73
2022/09/21 10:48:00;;;;;;;3.20;2.90;;;;;;;18.16;90.67;100485.33;1698839;83;21127;-73
2022/09/21 10:50:35;;;;;;;3.00;2.70;;;;;;;18.33;92.99;100478.84;1684937;83;21044;-73
2022/09/21 10:53:28;;;;;;;5.95;2.87;;;;;;;18.30;90.45;100484.77;1702304;84;21067;-73
2022/09/21 10:56:15;;;;;;;3.20;2.62;;;;;;;18.36;90.71;100488.20;1699816;83;21065;-72
2022/09/21 10:59:13;;;;;;;4.33;2.90;;;;;;;18.79;90.26;100488.30;1694986;83;21066;-72
2022/09/21 11:01:47;;;;;;;4.72;2.85;;;;;;;18.83;87.57;100492.80;1692161;83;21603;-72
2022/09/21 11:04:43;;;;;;;3.20;2.90;;;;;;;18.83;89.96;100495.89;1714511;84;21059;-72
2022/09/21 11:07:34;;;;;;;4.00;2.70;;;;;;;18.67;90.31;100496.23;1706796;83;21055;-73
2022/09/21 11:10:34;;;;;;;3.22;2.80;;;;;;;18.41;90.09;100496.02;1714965;83;21056;-72
2022/09/21 11:13:25;;;;;;;3.10;2.80;;;;;;;18.17;88.27;100500.03;1689183;83;21528;-72
2022/09/21 11:16:27;;;;;;;2.80;2.60;;;;;;;18.20;90.90;100498.48;1707240;83;21035;-73
2022/09/21 11:19:21;;;;;;;3.22;2.80;;;;;;;18.26;90.50;100497.67;1710780;84;21524;-72
2022/09/21 11:22:23;;;;;;;5.70;2.60;;;;;;;18.37;91.67;100499.81;1685488;84;21044;-72
2022/09/21 11:25:18;;;;;;;3.15;2.77;;;;;;;18.40;88.02;100501.34;1704926;83;21106;-72
2022/09/21 11:27:51;;;;;;;3.15;2.95;;;;;;;18.32;88.70;100501.93;1706046;83;21050;-72
2022/09/21 11:30:21;;;;;;;6.72;2.70;;;;;;;18.41;90.03;100501.23;1690644;83;21546;-72
2022/09/21 11:33:17;;;;;;;3.35;3.05;;;;;;;18.49;87.71;100505.86;1711364;83;21091;-72
2022/09/21 11:36:16;;;;;;;4.30;2.87;;;;;;;18.36;90.86;100507.27;1688529;83;21083;-72
2022/09/21 11:38:58;;;;;;;3.70;3.08;;;;;;;18.25;91.86;100502.06;1693917;83;21049;-72
2022/09/21 11:41:52;;;;;;;3.47;2.65;;;;;;;18.17;93.38;100509.16;1679985;83;21083;-72
2022/09/21 11:44:39;;;;;;;3.20;2.90;;;;;;;17.90;93.92;100506.84;1715358;83;21063;-72
2022/09/21 11:47:48;;;;;;;2.85;2.22;;;;;;;17.94;92.95;100504.84;1683998;84;21046;-72
2022/09/21 11:50:53;;;;;;;3.30;2.47;;;;;;;18.14;92.52;100499.43;1690405;83;21012;-71
2022/09/21 11:53:28;;;;;;;2.83;2.45;;;;;;;18.28;92.88;100501.81;1695935;83;21023;-72
2022/09/21 11:56:30;;;;;;;4.33;2.30;;;;;;;18.45;91.17;100500.53;1681206;84;21564;-72
2022/09/21 11:59:05;;;;;;;2.45;2.25;;;;;;;18.63;91.38;100500.86;1688742;83;21047;-72
2022/09/21 12:01:54;;;;;;;2.10;2.00;;;;;;;18.70;94.06;100503.35;1683217;83;21083;-72
2022/09/21 12:05:02;;;;;;;2.17;1.90;;;;;;;18.67;90.69;100502.27;1701519;83;21594;-72